CheckWX is a tool to help pilots better visualize weather data.  It is not intended as a substitute for an official pre-flight weather briefing.

22:47:49 UTC

KSTP METAR
St Paul Downtown Holman Field Airport
St Paul, Minnesota, USA
Current

55 mins ago

KSTP 202153Z 22007KT 10SM CLR M10/M21 A3068 RMK AO2 SLP406 T11001211
Observed
Feb-20 @ 21:53 UTC
Wind
  • 220° at 7 KTS
Visibility
10 SM
Flight Rules
VFR
Cloud Levels
  • Clear skies
Temperature
-10°C / 14°F
Dewpoint
-21°C / -6°F
Humidity
41%
Altimeter
30.68" Hg
Pressure
1038.92 hPa
Previous

2 hours ago

KSTP 202053Z 24008KT 10SM CLR M11/M22 A3069 RMK AO2 SLP408 T11061217 56027
Observed
Feb-20 @ 20:53 UTC
Wind
  • 240° at 8 KTS
Visibility
10 SM
Flight Rules
VFR
Cloud Levels
  • Clear skies
Temperature
-11°C / 12°F
Dewpoint
-22°C / -8°F
Humidity
40%
Altimeter
30.69" Hg
Pressure
1039.32 hPa
Previous

3 hours ago

KSTP 201953Z 25006KT 10SM CLR M11/M21 A3071 RMK AO2 SLP417 T11111211
Observed
Feb-20 @ 19:53 UTC
Wind
  • 250° at 6 KTS
Visibility
10 SM
Flight Rules
VFR
Cloud Levels
  • Clear skies
Temperature
-11°C / 12°F
Dewpoint
-21°C / -6°F
Humidity
44%
Altimeter
30.71" Hg
Pressure
1039.92 hPa